Time;durP1;ratioP1;P1;durP2;ratioP2;P2;SDS_P1;SDS_P2;PMS_P1;PMS_P2;Temp;Humidity;BMP_temperature;BMP_pressure;BME280_temperature;BME280_humidity;BME280_pressure;Samples;Min_cycle;Max_cycle;Signal;HPM_P1;HPM_P2
2022/01/20 00:03:31;;;;;;;30.35;6.75;;;6.30;99.90;;;;;;5037377;28;20033;-75
2022/01/20 00:27:56;;;;;;;34.90;5.55;;;5.90;99.90;;;;;;5039024;28;20036;-74
2022/01/20 00:33:18;;;;;;;33.30;6.07;;;6.00;99.90;;;;;;5042718;28;20084;-74
2022/01/20 00:38:16;;;;;;;27.98;5.03;;;5.90;99.90;;;;;;5037757;28;20033;-73
2022/01/20 00:40:42;;;;;;;29.35;4.82;;;5.90;99.90;;;;;;5044391;28;20382;-74
2022/01/20 00:43:07;;;;;;;29.83;5.20;;;5.90;99.90;;;;;;5045803;28;20033;-73
2022/01/20 00:45:33;;;;;;;32.35;6.07;;;5.90;99.90;;;;;;5038303;28;20474;-73
2022/01/20 00:47:59;;;;;;;34.88;5.00;;;5.90;99.90;;;;;;5038767;28;20029;-73
2022/01/20 00:50:25;;;;;;;31.77;5.55;;;5.80;99.90;;;;;;5029842;28;20034;-73
2022/01/20 00:52:51;;;;;;;33.08;4.90;;;5.80;99.90;;;;;;5036535;28;20397;-73
2022/01/20 00:55:18;;;;;;;33.15;5.65;;;5.80;99.90;;;;;;5041184;28;20381;-73
2022/01/20 00:57:43;;;;;;;34.15;4.93;;;5.70;99.90;;;;;;5046820;28;20032;-73
2022/01/20 01:00:12;;;;;;;30.92;5.65;;;5.80;99.90;;;;;;5042758;28;20045;-73
2022/01/20 01:02:38;;;;;;;41.88;5.80;;;5.70;99.90;;;;;;5042718;28;20120;-73
2022/01/20 01:05:05;;;;;;;35.03;5.45;;;5.70;99.90;;;;;;5036391;28;20107;-73
2022/01/20 01:07:48;;;;;;;25.52;5.47;;;5.70;99.90;;;;;;5044265;28;20394;-73
2022/01/20 01:10:21;;;;;;;40.97;5.78;;;5.70;99.90;;;;;;5034757;28;20588;-73
2022/01/20 01:12:58;;;;;;;36.88;7.30;;;5.70;99.90;;;;;;5041272;28;20087;-73
2022/01/20 01:15:31;;;;;;;31.23;5.18;;;5.60;99.90;;;;;;5038812;28;20500;-73
2022/01/20 01:23:27;;;;;;;38.08;5.43;;;5.60;99.90;;;;;;5036967;28;20029;-74
2022/01/20 01:25:56;;;;;;;28.60;4.30;;;5.60;99.90;;;;;;5041437;28;20032;-74
2022/01/20 01:28:25;;;;;;;34.53;4.68;;;5.60;99.90;;;;;;5040804;28;20108;-73
2022/01/20 01:33:18;;;;;;;21.13;5.00;;;5.60;99.90;;;;;;5047852;28;20179;-73
2022/01/20 01:35:43;;;;;;;25.10;4.70;;;5.70;99.90;;;;;;5043933;28;20029;-73
2022/01/20 01:40:38;;;;;;;42.58;5.72;;;5.70;99.90;;;;;;5043602;28;20029;-73
2022/01/20 01:43:12;;;;;;;24.27;4.40;;;5.80;99.90;;;;;;5039601;28;20033;-74
2022/01/20 01:45:40;;;;;;;29.52;4.60;;;5.80;99.90;;;;;;5035455;28;20129;-74
2022/01/20 01:48:07;;;;;;;29.88;4.63;;;5.70;99.90;;;;;;5043867;28;20021;-74
2022/01/20 01:50:33;;;;;;;21.60;4.00;;;5.70;99.90;;;;;;5043842;28;20472;-73
2022/01/20 01:53:03;;;;;;;31.55;5.40;;;5.70;99.90;;;;;;5041303;28;20036;-73
2022/01/20 01:55:30;;;;;;;26.58;4.72;;;5.70;99.90;;;;;;5042667;28;20025;-73
2022/01/20 01:57:56;;;;;;;38.65;4.80;;;5.80;99.90;;;;;;5045375;28;20474;-73
2022/01/20 02:00:22;;;;;;;26.80;4.43;;;5.70;99.90;;;;;;5037725;28;20033;-74
2022/01/20 02:02:48;;;;;;;18.10;4.00;;;5.80;99.90;;;;;;5041958;28;20220;-73
2022/01/20 02:05:16;;;;;;;28.23;4.05;;;5.90;99.90;;;;;;5040827;28;20123;-73
2022/01/20 02:21:01;;;;;;;30.75;4.82;;;5.80;99.90;;;;;;5039792;28;20478;-73
2022/01/20 02:23:27;;;;;;;22.50;5.13;;;5.70;99.90;;;;;;5040623;28;20159;-72
2022/01/20 02:25:53;;;;;;;18.15;3.83;;;5.70;99.90;;;;;;5047256;28;20492;-73
2022/01/20 02:28:19;;;;;;;33.58;4.53;;;5.80;99.90;;;;;;5039308;28;20091;-74
2022/01/20 02:30:45;;;;;;;28.20;4.18;;;5.70;99.90;;;;;;5042260;28;20540;-74
2022/01/20 02:33:16;;;;;;;21.60;3.55;;;5.60;99.90;;;;;;5046099;28;20025;-73
2022/01/20 02:35:47;;;;;;;20.75;5.28;;;5.60;99.90;;;;;;5035072;28;20386;-73
2022/01/20 02:38:19;;;;;;;19.00;3.90;;;5.60;99.90;;;;;;5035107;28;20022;-74
2022/01/20 02:46:04;;;;;;;25.13;3.90;;;5.70;99.90;;;;;;5039934;28;20052;-73
2022/01/20 02:48:30;;;;;;;18.27;4.03;;;5.60;99.90;;;;;;5039839;28;20501;-73
2022/01/20 02:50:57;;;;;;;14.18;3.58;;;5.60;99.90;;;;;;5041401;28;20022;-73
2022/01/20 02:53:22;;;;;;;19.20;3.65;;;5.50;99.90;;;;;;5039847;28;20032;-73
2022/01/20 02:55:48;;;;;;;24.33;4.88;;;5.50;99.90;;;;;;5039032;28;20108;-73
2022/01/20 02:58:14;;;;;;;21.67;4.03;;;5.50;99.90;;;;;;5043618;28;20091;-73
2022/01/20 03:00:39;;;;;;;26.65;4.40;;;5.60;99.90;;;;;;5033607;28;20037;-73
2022/01/20 03:03:05;;;;;;;20.33;3.97;;;5.60;99.90;;;;;;5038658;28;20017;-74
2022/01/20 03:05:31;;;;;;;28.45;5.15;;;5.60;99.90;;;;;;5049320;28;20024;-74
2022/01/20 03:07:57;;;;;;;18.10;4.30;;;5.70;99.90;;;;;;5040063;28;20071;-74
2022/01/20 03:10:23;;;;;;;24.45;4.57;;;5.70;99.90;;;;;;5038971;28;20037;-74
2022/01/20 03:12:50;;;;;;;27.52;4.47;;;5.70;99.90;;;;;;5039208;28;20489;-74
2022/01/20 03:15:16;;;;;;;19.65;4.40;;;5.70;99.90;;;;;;5038537;28;20034;-73
2022/01/20 03:17:42;;;;;;;29.30;4.32;;;5.60;99.90;;;;;;5045159;28;20532;-73
2022/01/20 03:20:08;;;;;;;22.42;4.43;;;5.60;99.90;;;;;;5037176;28;20083;-73
2022/01/20 03:22:33;;;;;;;29.60;4.85;;;5.70;99.90;;;;;;5044212;28;20454;-73
2022/01/20 03:24:59;;;;;;;34.90;5.10;;;5.60;99.90;;;;;;5040837;28;20091;-73
2022/01/20 03:27:26;;;;;;;25.92;4.50;;;5.60;99.90;;;;;;5037377;28;20026;-73
2022/01/20 03:29:52;;;;;;;35.30;5.88;;;5.60;99.90;;;;;;5039226;28;20036;-73
2022/01/20 03:32:18;;;;;;;26.38;4.03;;;5.60;99.90;;;;;;5046859;28;20033;-73
2022/01/20 03:34:43;;;;;;;26.40;4.20;;;5.60;99.90;;;;;;5040380;28;20397;-73
2022/01/20 03:37:09;;;;;;;24.77;3.67;;;5.50;99.90;;;;;;5040796;28;20029;-74
2022/01/20 03:39:35;;;;;;;22.48;4.43;;;5.40;99.90;;;;;;5040453;28;20095;-74
2022/01/20 03:42:00;;;;;;;30.63;3.75;;;5.40;99.90;;;;;;5039038;28;20022;-73
2022/01/20 03:44:26;;;;;;;28.60;3.97;;;5.40;99.90;;;;;;5034985;28;20036;-73
2022/01/20 03:46:52;;;;;;;21.63;4.32;;;5.30;99.90;;;;;;5046134;28;20100;-73
2022/01/20 03:49:40;;;;;;;22.67;4.18;;;5.50;99.90;;;;;;5041835;28;20401;-73
2022/01/20 03:52:07;;;;;;;16.02;3.65;;;5.50;99.90;;;;;;5033780;28;20060;-73
2022/01/20 03:54:33;;;;;;;28.40;4.70;;;5.50;99.90;;;;;;5035337;28;20499;-73
2022/01/20 03:56:59;;;;;;;26.92;4.45;;;5.50;99.90;;;;;;5044308;28;20955;-73
2022/01/20 03:59:25;;;;;;;23.80;3.70;;;5.40;99.90;;;;;;5043694;28;20083;-73
2022/01/20 04:01:51;;;;;;;24.73;4.10;;;5.40;99.90;;;;;;5040878;28;20118;-73
2022/01/20 04:04:17;;;;;;;18.98;3.25;;;5.30;99.90;;;;;;5039404;28;20124;-73
2022/01/20 04:06:42;;;;;;;25.50;3.33;;;5.40;99.90;;;;;;5041127;28;20025;-73
2022/01/20 04:09:08;;;;;;;19.40;3.75;;;5.30;99.90;;;;;;5050058;28;20479;-73
2022/01/20 04:11:34;;;;;;;27.60;3.38;;;5.30;99.90;;;;;;5041628;28;20025;-73
2022/01/20 04:14:02;;;;;;;23.23;3.55;;;5.30;99.90;;;;;;5043329;28;20462;-73
2022/01/20 04:16:37;;;;;;;25.10;3.67;;;5.40;99.90;;;;;;5040824;28;20026;-73
2022/01/20 04:19:08;;;;;;;25.58;3.38;;;5.40;99.90;;;;;;5048870;28;20037;-74
2022/01/20 04:21:37;;;;;;;34.30;3.92;;;5.30;99.90;;;;;;5039486;28;20028;-73
2022/01/20 04:24:04;;;;;;;19.23;3.00;;;5.40;99.90;;;;;;5044014;28;20090;-73
2022/01/20 04:26:29;;;;;;;25.90;2.88;;;5.40;99.90;;;;;;5049528;28;20013;-73
2022/01/20 04:28:56;;;;;;;16.73;3.00;;;5.40;99.90;;;;;;5040376;28;20037;-73
2022/01/20 04:31:28;;;;;;;17.63;2.97;;;5.30;99.90;;;;;;5039516;28;20105;-74
2022/01/20 04:33:56;;;;;;;21.25;3.58;;;5.20;99.90;;;;;;5047657;28;20037;-73
2022/01/20 04:36:25;;;;;;;21.00;3.15;;;5.20;99.90;;;;;;5038642;28;20048;-73
2022/01/20 04:38:51;;;;;;;21.00;3.10;;;5.10;99.90;;;;;;5041565;28;20543;-73
2022/01/20 04:41:17;;;;;;;14.43;2.75;;;5.10;99.90;;;;;;5049182;28;20025;-74
2022/01/20 04:43:43;;;;;;;23.40;3.47;;;5.00;99.90;;;;;;5040748;28;20045;-74
2022/01/20 04:46:36;;;;;;;22.30;2.90;;;5.10;99.90;;;;;;5036951;28;20056;-74
2022/01/20 04:57:03;;;;;;;21.73;2.88;;;5.10;99.90;;;;;;5042655;28;20041;-74
2022/01/20 04:57:26;;;;;;;17.73;3.30;;;5.10;99.90;;;;;;5042163;28;20073;-73
2022/01/20 04:59:53;;;;;;;18.30;2.95;;;5.10;99.90;;;;;;5038480;28;20041;-73
2022/01/20 05:02:19;;;;;;;21.48;3.53;;;5.10;99.90;;;;;;5042168;28;20389;-73
2022/01/20 05:04:45;;;;;;;13.65;2.60;;;5.10;99.90;;;;;;5034811;28;20017;-73
2022/01/20 05:07:19;;;;;;;21.80;4.18;;;5.20;99.90;;;;;;5046954;28;20020;-74
2022/01/20 05:09:45;;;;;;;14.85;2.35;;;5.30;99.90;;;;;;5049939;28;20430;-74
2022/01/20 05:12:14;;;;;;;17.17;2.63;;;5.30;99.90;;;;;;5042527;28;20112;-73
2022/01/20 05:14:40;;;;;;;18.38;2.70;;;5.30;99.90;;;;;;5046106;28;20552;-73
2022/01/20 05:17:05;;;;;;;21.15;3.08;;;5.40;99.90;;;;;;5034213;28;20101;-73
2022/01/20 05:19:32;;;;;;;15.07;3.05;;;5.50;99.90;;;;;;5038066;28;20039;-73
2022/01/20 05:21:59;;;;;;;18.35;3.35;;;5.50;99.90;;;;;;5041711;28;20044;-74
2022/01/20 05:24:25;;;;;;;24.38;3.95;;;5.60;99.90;;;;;;5045746;28;20031;-73
2022/01/20 05:26:53;;;;;;;17.83;2.80;;;5.70;99.90;;;;;;5048210;28;20417;-74
2022/01/20 05:29:19;;;;;;;17.58;3.25;;;5.70;99.90;;;;;;5041889;28;20044;-74
2022/01/20 05:31:45;;;;;;;17.17;3.30;;;5.70;99.90;;;;;;5036381;28;20410;-73
2022/01/20 05:34:11;;;;;;;18.52;3.10;;;5.80;99.90;;;;;;5039931;28;20037;-73
2022/01/20 05:36:37;;;;;;;20.35;2.80;;;5.90;99.90;;;;;;5040554;28;20032;-74
2022/01/20 05:39:04;;;;;;;21.88;3.38;;;5.80;99.90;;;;;;5041924;28;20064;-74
2022/01/20 05:41:30;;;;;;;21.45;3.20;;;5.70;99.90;;;;;;5046155;28;20029;-75
2022/01/20 05:43:56;;;;;;;23.90;3.70;;;5.60;99.90;;;;;;5038233;28;20025;-74
2022/01/20 05:46:25;;;;;;;22.23;3.15;;;5.60;99.90;;;;;;5049340;28;20373;-74
2022/01/20 05:48:51;;;;;;;18.77;2.92;;;5.60;99.90;;;;;;5046177;28;20021;-74
2022/01/20 05:51:18;;;;;;;20.73;3.83;;;5.70;99.90;;;;;;5040077;28;20394;-74
2022/01/20 05:53:44;;;;;;;11.48;2.67;;;5.70;99.90;;;;;;5045653;28;20365;-73
2022/01/20 05:56:09;;;;;;;19.73;2.92;;;5.80;99.90;;;;;;5049236;28;20029;-74
2022/01/20 05:58:37;;;;;;;21.17;2.47;;;5.80;99.90;;;;;;5038506;28;20490;-73
2022/01/20 06:01:08;;;;;;;14.60;2.55;;;5.90;99.90;;;;;;5041858;28;20072;-74
2022/01/20 06:03:37;;;;;;;22.73;3.22;;;5.80;99.90;;;;;;5038118;28;20056;-73
2022/01/20 06:06:05;;;;;;;21.58;3.25;;;5.80;99.90;;;;;;5042465;28;21006;-73
2022/01/20 06:08:31;;;;;;;15.25;2.13;;;5.90;99.90;;;;;;5038146;28;20492;-74
2022/01/20 06:10:57;;;;;;;16.25;1.90;;;5.90;99.90;;;;;;5038050;28;20033;-73
2022/01/20 06:13:23;;;;;;;17.83;2.72;;;5.90;99.90;;;;;;5036002;28;20018;-74
2022/01/20 06:15:48;;;;;;;13.45;2.03;;;5.90;99.90;;;;;;5047536;28;20025;-74
2022/01/20 06:18:14;;;;;;;11.23;2.45;;;5.80;99.90;;;;;;5039888;28;20030;-74
2022/01/20 06:20:40;;;;;;;12.27;1.60;;;5.80;99.90;;;;;;5033837;28;20034;-74
2022/01/20 06:23:09;;;;;;;9.27;1.70;;;5.70;99.90;;;;;;5043413;28;20013;-74
2022/01/20 06:25:36;;;;;;;13.10;2.08;;;5.80;99.90;;;;;;5044782;28;20029;-74
2022/01/20 06:28:02;;;;;;;13.02;1.70;;;5.90;99.90;;;;;;5037960;28;20432;-73
2022/01/20 06:30:28;;;;;;;14.75;2.28;;;5.90;99.90;;;;;;5043048;28;20504;-73
2022/01/20 06:32:54;;;;;;;15.38;1.75;;;5.90;99.90;;;;;;5040389;28;20064;-74
2022/01/20 06:35:20;;;;;;;14.90;2.20;;;5.90;99.90;;;;;;5039066;28;20029;-73
2022/01/20 06:37:46;;;;;;;13.23;2.38;;;5.90;99.90;;;;;;5038947;28;20064;-73
2022/01/20 06:40:13;;;;;;;13.60;2.10;;;5.90;99.90;;;;;;5040081;28;20068;-73
2022/01/20 06:42:39;;;;;;;15.68;2.17;;;5.90;99.90;;;;;;5041754;28;20025;-73
2022/01/20 06:45:08;;;;;;;14.50;2.15;;;5.90;99.90;;;;;;5045090;28;20532;-72
2022/01/20 06:47:33;;;;;;;14.13;1.92;;;5.80;99.90;;;;;;5039666;28;20053;-72
2022/01/20 06:50:00;;;;;;;17.63;2.30;;;6.00;99.90;;;;;;5037179;28;20069;-73
2022/01/20 06:52:27;;;;;;;17.35;2.50;;;5.90;99.90;;;;;;5025537;28;20018;-72
2022/01/20 06:54:53;;;;;;;17.33;2.40;;;6.00;99.90;;;;;;5043970;28;20481;-73
2022/01/20 06:57:18;;;;;;;15.68;2.58;;;6.00;99.90;;;;;;5039011;28;20040;-73
2022/01/20 06:59:44;;;;;;;15.95;2.35;;;6.00;99.90;;;;;;5039485;28;20087;-73
2022/01/20 07:02:09;;;;;;;18.10;2.67;;;6.00;99.90;;;;;;5037360;28;20496;-74
2022/01/20 07:04:37;;;;;;;21.17;3.53;;;6.00;99.90;;;;;;5040417;28;20026;-73
2022/01/20 07:07:03;;;;;;;15.35;2.40;;;6.10;99.90;;;;;;5041542;28;20037;-73
2022/01/20 07:09:29;;;;;;;15.45;3.20;;;6.20;99.90;;;;;;5037865;28;20030;-73
2022/01/20 07:11:54;;;;;;;18.27;2.65;;;6.10;99.90;;;;;;5045545;28;20036;-74
2022/01/20 07:14:20;;;;;;;17.40;2.95;;;6.20;99.90;;;;;;5042558;28;20428;-73
2022/01/20 07:16:48;;;;;;;25.25;2.80;;;6.20;99.90;;;;;;5045070;28;20478;-73
2022/01/20 07:19:14;;;;;;;17.90;2.92;;;6.20;99.90;;;;;;5034573;28;20037;-73
2022/01/20 07:21:40;;;;;;;20.75;2.95;;;6.10;99.90;;;;;;5038024;28;20494;-74
2022/01/20 07:24:07;;;;;;;20.70;2.88;;;6.10;99.90;;;;;;5041959;28;20094;-73
2022/01/20 07:26:33;;;;;;;16.77;2.13;;;6.10;99.90;;;;;;5039914;28;20557;-74
2022/01/20 07:28:59;;;;;;;15.25;3.22;;;6.10;99.90;;;;;;5031675;28;20041;-73
2022/01/20 07:31:24;;;;;;;15.80;2.88;;;6.10;99.90;;;;;;5038903;28;20113;-72
2022/01/20 07:33:51;;;;;;;20.80;3.50;;;6.10;99.90;;;;;;5040624;28;20654;-74
2022/01/20 07:36:17;;;;;;;16.75;2.70;;;6.00;99.90;;;;;;5049022;28;20556;-73
2022/01/20 07:38:44;;;;;;;20.63;2.75;;;6.00;99.90;;;;;;5039147;28;20025;-74
2022/01/20 07:41:10;;;;;;;28.13;3.70;;;6.10;99.90;;;;;;5049328;28;20025;-73
2022/01/20 07:43:35;;;;;;;26.67;2.92;;;6.00;99.90;;;;;;5043766;28;20032;-74
2022/01/20 07:46:01;;;;;;;18.00;3.13;;;6.00;99.90;;;;;;5048953;28;20499;-74
2022/01/20 07:48:27;;;;;;;18.52;3.13;;;6.00;99.90;;;;;;5041999;28;20159;-74
2022/01/20 07:50:53;;;;;;;19.92;3.08;;;6.00;99.90;;;;;;5047818;28;20036;-74
2022/01/20 07:53:19;;;;;;;22.75;3.67;;;6.00;99.90;;;;;;5043944;28;20037;-74
2022/01/20 07:55:45;;;;;;;21.33;3.40;;;6.00;99.90;;;;;;5047454;28;20018;-74
2022/01/20 07:58:10;;;;;;;20.38;3.47;;;6.00;99.90;;;;;;5045780;28;20047;-74
2022/01/20 08:00:36;;;;;;;22.23;3.38;;;6.00;99.90;;;;;;5046093;28;20044;-74
2022/01/20 08:03:02;;;;;;;23.15;3.35;;;6.10;99.90;;;;;;5038161;28;20025;-74
2022/01/20 08:05:27;;;;;;;32.75;4.05;;;6.00;99.90;;;;;;5049398;28;20029;-74
2022/01/20 08:07:53;;;;;;;22.08;3.30;;;6.00;99.90;;;;;;5045077;28;20030;-74
2022/01/20 08:10:19;;;;;;;24.13;3.50;;;5.90;99.90;;;;;;5049503;28;20029;-75
2022/01/20 08:12:45;;;;;;;25.67;3.90;;;6.00;99.90;;;;;;5044758;28;20049;-74
2022/01/20 08:15:12;;;;;;;30.45;3.83;;;5.90;99.90;;;;;;5046389;28;20087;-74
2022/01/20 08:17:42;;;;;;;22.77;3.70;;;6.00;99.90;;;;;;5042705;28;20026;-74
2022/01/20 08:20:09;;;;;;;26.88;4.22;;;6.00;99.90;;;;;;5045106;28;20029;-73
2022/01/20 08:22:36;;;;;;;23.15;4.20;;;6.10;99.90;;;;;;5045450;28;20045;-75
2022/01/20 08:25:15;;;;;;;23.25;4.22;;;6.10;99.90;;;;;;5045762;28;20028;-74
2022/01/20 08:27:43;;;;;;;16.92;3.22;;;6.10;99.90;;;;;;5039984;28;20025;-74
2022/01/20 08:30:12;;;;;;;21.27;3.97;;;6.00;99.90;;;;;;5044335;28;20038;-74
2022/01/20 08:32:38;;;;;;;21.92;3.92;;;6.00;99.90;;;;;;5039337;28;20402;-74
2022/01/20 08:35:06;;;;;;;16.83;3.70;;;6.00;99.90;;;;;;5044184;28;20018;-75
2022/01/20 08:37:37;;;;;;;26.13;3.85;;;6.00;99.90;;;;;;5049317;28;20116;-74
2022/01/20 08:40:05;;;;;;;18.92;3.65;;;6.10;99.90;;;;;;5046940;28;20112;-74
2022/01/20 08:42:31;;;;;;;20.20;4.03;;;6.00;99.90;;;;;;5034974;28;20025;-74
2022/01/20 08:44:57;;;;;;;15.25;3.38;;;6.00;99.90;;;;;;5044182;28;20030;-75
2022/01/20 08:47:23;;;;;;;30.40;4.47;;;6.00;99.90;;;;;;5051200;28;20132;-75
2022/01/20 08:49:50;;;;;;;19.73;4.05;;;6.00;99.90;;;;;;5047967;28;20107;-75
2022/01/20 08:52:17;;;;;;;24.27;4.20;;;6.00;99.90;;;;;;5035988;28;20105;-74
2022/01/20 08:54:47;;;;;;;20.60;3.97;;;6.00;99.90;;;;;;5042750;28;20028;-74
2022/01/20 08:57:14;;;;;;;17.92;4.07;;;6.00;99.90;;;;;;5046844;28;20503;-74
2022/01/20 08:59:42;;;;;;;23.50;3.70;;;6.10;99.90;;;;;;5038247;28;20041;-74
2022/01/20 09:02:11;;;;;;;20.25;3.60;;;6.00;99.90;;;;;;5037085;28;20028;-74
2022/01/20 09:04:37;;;;;;;20.77;3.50;;;6.00;99.90;;;;;;5037005;28;20410;-75
2022/01/20 09:07:03;;;;;;;16.95;3.95;;;5.90;99.90;;;;;;5043128;28;20029;-75
2022/01/20 09:09:29;;;;;;;25.17;3.58;;;5.90;99.90;;;;;;5037507;28;20082;-75
2022/01/20 09:17:35;;;;;;;22.10;3.90;;;6.00;99.90;;;;;;5038755;28;20072;-75
2022/01/20 09:20:00;;;;;;;23.65;3.97;;;6.00;99.90;;;;;;5042847;28;20069;-74
2022/01/20 09:22:29;;;;;;;18.83;3.83;;;6.00;99.90;;;;;;5041645;28;20088;-74
2022/01/20 09:24:55;;;;;;;21.55;4.18;;;6.10;99.90;;;;;;5038299;28;20078;-74
2022/01/20 09:27:20;;;;;;;23.92;4.15;;;6.20;99.90;;;;;;5042922;28;20096;-74
2022/01/20 09:29:46;;;;;;;18.02;3.83;;;6.20;99.90;;;;;;5045289;28;20477;-75
2022/01/20 09:32:13;;;;;;;21.40;3.28;;;6.20;99.90;;;;;;5036799;28;20481;-75
2022/01/20 09:34:40;;;;;;;18.02;4.40;;;6.20;99.90;;;;;;5042629;28;20103;-75
2022/01/20 09:37:05;;;;;;;18.42;3.95;;;6.20;99.90;;;;;;5039735;28;20029;-75
2022/01/20 09:39:31;;;;;;;24.75;4.40;;;6.20;99.90;;;;;;5041676;28;20039;-75
2022/01/20 09:41:58;;;;;;;19.05;3.60;;;6.20;99.90;;;;;;5041885;28;20469;-74
2022/01/20 09:44:24;;;;;;;16.38;3.00;;;6.20;99.90;;;;;;5037788;28;20025;-75
2022/01/20 09:46:50;;;;;;;22.13;3.28;;;6.20;99.90;;;;;;5048023;28;20044;-75
2022/01/20 09:49:16;;;;;;;16.77;3.30;;;6.30;99.90;;;;;;5042125;28;20480;-75
2022/01/20 09:51:43;;;;;;;13.00;2.78;;;6.30;99.90;;;;;;5047201;28;20025;-75
2022/01/20 09:54:09;;;;;;;16.60;3.20;;;6.30;99.90;;;;;;5040542;28;20033;-75
2022/01/20 09:56:36;;;;;;;20.38;3.47;;;6.30;99.90;;;;;;5038070;28;20017;-75
2022/01/20 09:59:02;;;;;;;18.10;3.85;;;6.40;99.90;;;;;;5040690;28;20038;-75
2022/01/20 10:01:40;;;;;;;17.88;2.78;;;6.40;99.90;;;;;;5033634;28;20029;-74
2022/01/20 10:04:06;;;;;;;18.50;5.72;;;6.40;99.90;;;;;;5032868;28;20025;-75
2022/01/20 10:06:31;;;;;;;16.65;2.80;;;6.30;99.90;;;;;;5044781;28;20029;-74
2022/01/20 10:08:59;;;;;;;20.20;3.08;;;6.30;99.90;;;;;;5039589;28;20026;-75
2022/01/20 10:11:25;;;;;;;16.85;3.00;;;6.40;99.90;;;;;;5035611;28;20537;-75
2022/01/20 10:13:51;;;;;;;14.95;3.55;;;6.50;99.90;;;;;;5041590;28;20100;-76
2022/01/20 10:16:17;;;;;;;25.30;2.90;;;6.50;99.90;;;;;;5044837;28;20108;-75
2022/01/20 10:18:54;;;;;;;20.50;2.88;;;6.50;99.90;;;;;;5046581;28;20365;-76
2022/01/20 10:21:45;;;;;;;16.40;3.17;;;6.60;99.90;;;;;;5034834;28;20022;-74
2022/01/20 10:24:13;;;;;;;17.15;3.10;;;6.60;99.90;;;;;;5035158;28;20035;-75
2022/01/20 10:26:39;;;;;;;17.33;3.08;;;6.50;99.90;;;;;;5046746;28;20032;-75
2022/01/20 10:29:12;;;;;;;16.42;3.25;;;6.50;99.90;;;;;;5045481;28;20056;-75
2022/01/20 10:31:46;;;;;;;;;;;6.50;99.90;;;;;;5037529;28;20022;-73
2022/01/20 10:34:35;;;;;;;12.05;2.55;;;6.40;99.90;;;;;;5045340;28;19913;-76
2022/01/20 10:37:08;;;;;;;16.35;3.03;;;6.50;99.90;;;;;;5048510;28;20083;-75
2022/01/20 10:39:40;;;;;;;26.35;4.18;;;6.50;99.90;;;;;;5039339;28;20036;-75
2022/01/20 10:42:13;;;;;;;19.90;3.70;;;6.50;99.90;;;;;;5035609;28;20525;-74
2022/01/20 10:44:48;;;;;;;15.73;3.30;;;6.60;99.90;;;;;;5045572;28;20033;-74
2022/01/20 10:47:16;;;;;;;19.65;3.53;;;6.60;99.90;;;;;;5031629;28;20025;-75
2022/01/20 10:49:44;;;;;;;19.30;3.10;;;6.60;99.90;;;;;;5037605;28;20095;-74
2022/01/20 10:52:11;;;;;;;17.10;3.00;;;6.70;99.90;;;;;;5038172;28;20410;-74
2022/01/20 10:54:44;;;;;;;19.35;3.53;;;6.70;99.90;;;;;;5041317;28;20033;-74
2022/01/20 10:57:11;;;;;;;;;;;6.80;99.90;;;;;;5039487;28;20017;-72
2022/01/20 11:00:01;;;;;;;16.00;2.85;;;6.70;99.90;;;;;;5040482;28;20272;-74
2022/01/20 11:02:29;;;;;;;15.05;2.70;;;6.70;99.90;;;;;;5039235;28;20025;-76
2022/01/20 11:04:59;;;;;;;11.63;2.65;;;6.70;99.90;;;;;;5031009;28;20067;-75
2022/01/20 11:07:27;;;;;;;22.13;3.28;;;6.70;99.90;;;;;;5036891;28;20091;-75
2022/01/20 11:10:02;;;;;;;19.85;3.22;;;6.70;99.90;;;;;;5038273;28;20021;-75
2022/01/20 11:12:28;;;;;;;16.50;2.53;;;6.80;99.90;;;;;;5038018;28;20049;-75
2022/01/20 11:14:55;;;;;;;19.75;3.42;;;6.80;99.90;;;;;;5035313;28;20052;-74
2022/01/20 11:17:23;;;;;;;23.23;3.20;;;6.80;99.90;;;;;;5039595;28;20021;-75
2022/01/20 11:19:50;;;;;;;16.67;3.15;;;6.80;99.90;;;;;;5040015;28;20069;-74
2022/01/20 11:22:17;;;;;;;14.38;2.95;;;6.90;99.90;;;;;;5044200;28;20025;-75
2022/01/20 11:24:43;;;;;;;13.55;2.75;;;6.80;99.90;;;;;;5043311;28;20128;-75
2022/01/20 11:27:14;;;;;;;12.77;2.58;;;6.90;99.90;;;;;;5032963;28;20374;-75
2022/01/20 11:29:50;;;;;;;19.17;3.33;;;6.90;99.90;;;;;;5029600;28;20025;-76
2022/01/20 11:32:21;;;;;;;18.13;2.90;;;6.90;99.90;;;;;;5032826;28;20534;-75
2022/01/20 11:34:57;;;;;;;15.48;3.05;;;6.90;99.90;;;;;;5035597;28;20078;-75
2022/01/20 11:37:25;;;;;;;15.82;2.35;;;6.90;99.90;;;;;;5032735;28;20022;-74
2022/01/20 11:39:53;;;;;;;16.42;2.95;;;6.90;99.90;;;;;;5036205;28;20084;-75
2022/01/20 11:42:24;;;;;;;15.80;3.10;;;6.80;99.90;;;;;;5040018;28;20032;-75
2022/01/20 11:44:52;;;;;;;16.05;3.28;;;6.80;99.90;;;;;;5038853;28;20040;-75
2022/01/20 11:47:18;;;;;;;19.38;3.08;;;6.70;99.90;;;;;;5043813;28;20029;-75
2022/01/20 11:49:45;;;;;;;20.08;3.08;;;6.70;99.90;;;;;;5039333;28;20477;-74
2022/01/20 11:52:21;;;;;;;13.43;2.63;;;6.70;99.90;;;;;;5044756;28;20024;-74
2022/01/20 11:54:47;;;;;;;19.05;3.45;;;6.80;99.90;;;;;;5038724;28;20083;-75
2022/01/20 11:57:19;;;;;;;15.00;2.95;;;6.90;99.90;;;;;;5034375;28;20441;-75
2022/01/20 11:59:50;;;;;;;24.48;3.35;;;7.00;99.90;;;;;;5037354;28;20037;-75
2022/01/20 12:02:35;;;;;;;13.35;3.15;;;7.10;99.90;;;;;;5036975;28;20028;-76
2022/01/20 12:05:27;;;;;;;15.57;3.25;;;7.20;99.90;;;;;;5037905;28;20014;-75
2022/01/20 12:08:05;;;;;;;24.27;3.65;;;7.20;99.90;;;;;;5034652;28;20427;-76
2022/01/20 12:10:31;;;;;;;21.60;3.85;;;7.30;99.90;;;;;;5035801;28;20583;-76
2022/01/20 12:13:09;;;;;;;20.10;3.40;;;7.20;99.90;;;;;;5036915;28;20029;-76
2022/01/20 12:15:45;;;;;;;19.00;2.92;;;7.10;99.90;;;;;;5030141;28;20018;-76
2022/01/20 12:18:13;;;;;;;21.35;3.20;;;7.10;99.90;;;;;;5031014;28;20067;-76
2022/01/20 12:20:38;;;;;;;14.82;3.15;;;7.10;99.90;;;;;;5049208;28;20086;-77
2022/01/20 12:23:04;;;;;;;11.45;2.13;;;7.10;99.90;;;;;;5039247;28;20057;-76
2022/01/20 12:25:30;;;;;;;14.80;3.22;;;7.10;99.90;;;;;;5038226;28;20017;-75
2022/01/20 12:28:13;;;;;;;16.10;2.70;;;7.10;99.90;;;;;;5037809;28;20061;-75
2022/01/20 12:30:44;;;;;;;;;;;7.10;99.90;;;;;;5038234;28;20029;-74
2022/01/20 12:33:14;;;;;;;16.75;3.38;;;7.20;99.90;;;;;;5035881;28;20024;-76
2022/01/20 12:35:41;;;;;;;17.98;2.97;;;7.10;99.90;;;;;;5039015;28;20033;-76
2022/01/20 12:38:28;;;;;;;15.63;3.28;;;7.00;99.90;;;;;;5036614;28;20025;-76
2022/01/20 12:41:00;;;;;;;18.55;3.17;;;6.90;99.90;;;;;;5037750;28;20049;-78
2022/01/20 12:43:44;;;;;;;13.90;2.70;;;6.90;99.90;;;;;;5034118;28;20029;-78
2022/01/20 12:46:25;;;;;;;10.38;2.47;;;6.90;99.90;;;;;;5036518;28;20057;-75
2022/01/20 12:49:04;;;;;;;19.60;2.88;;;7.00;99.90;;;;;;5039232;28;20405;-77
2022/01/20 12:51:34;;;;;;;9.93;2.35;;;7.00;99.90;;;;;;5038127;28;20029;-76
2022/01/20 12:54:05;;;;;;;12.07;2.60;;;7.10;99.90;;;;;;5033687;28;20036;-76
2022/01/20 12:56:33;;;;;;;16.55;3.17;;;7.10;99.90;;;;;;5036074;28;20025;-76
2022/01/20 12:59:00;;;;;;;16.55;2.60;;;7.10;99.90;;;;;;5034609;28;20041;-75
2022/01/20 13:01:36;;;;;;;12.43;2.47;;;7.10;99.90;;;;;;5045309;28;20075;-75
2022/01/20 13:04:02;;;;;;;13.02;2.88;;;7.20;99.90;;;;;;5038466;28;20168;-75
2022/01/20 13:06:29;;;;;;;16.13;2.53;;;7.20;99.90;;;;;;5037089;28;20116;-75
2022/01/20 13:09:05;;;;;;;7.65;2.20;;;7.30;99.90;;;;;;5050572;28;20059;-75
2022/01/20 13:11:40;;;;;;;15.27;3.00;;;7.20;99.90;;;;;;5042660;28;20489;-75
2022/01/20 13:14:06;;;;;;;12.38;2.10;;;7.20;99.90;;;;;;5032371;28;20448;-75
2022/01/20 13:16:33;;;;;;;16.20;3.03;;;7.30;99.90;;;;;;5039006;28;20508;-75
2022/01/20 13:19:02;;;;;;;10.73;2.33;;;7.30;99.90;;;;;;5034453;28;20045;-74
2022/01/20 13:21:40;;;;;;;10.65;2.55;;;7.20;99.90;;;;;;5041589;28;20381;-76
2022/01/20 13:24:08;;;;;;;12.77;2.08;;;7.00;99.90;;;;;;5049100;28;20387;-76
2022/01/20 13:26:49;;;;;;;14.73;2.38;;;7.00;99.90;;;;;;5042899;28;20040;-76
2022/01/20 13:29:16;;;;;;;8.73;2.17;;;7.00;99.90;;;;;;5041310;28;20037;-76
2022/01/20 13:31:43;;;;;;;10.82;2.30;;;6.90;99.90;;;;;;5042191;28;20512;-75
2022/01/20 13:34:14;;;;;;;11.23;2.35;;;7.00;99.90;;;;;;5038299;28;20485;-76
2022/01/20 13:36:43;;;;;;;9.95;2.67;;;6.90;99.90;;;;;;5040927;28;20026;-76
2022/01/20 13:39:09;;;;;;;11.95;2.20;;;6.80;99.90;;;;;;5036329;28;20041;-76
2022/01/20 13:41:35;;;;;;;9.20;2.40;;;6.80;99.90;;;;;;5037902;28;20021;-75
2022/01/20 13:47:05;;;;;;;15.55;2.75;;;6.90;99.90;;;;;;5047848;28;20405;-76
2022/01/20 13:49:31;;;;;;;8.00;2.40;;;7.00;99.90;;;;;;5039918;28;20055;-76
2022/01/20 13:52:01;;;;;;;14.20;2.17;;;7.10;99.90;;;;;;5042722;28;20057;-75
2022/01/20 13:54:40;;;;;;;11.77;2.10;;;7.10;99.90;;;;;;5041680;28;20482;-75
2022/01/20 13:57:06;;;;;;;12.55;2.72;;;7.10;99.90;;;;;;5035642;28;20028;-76
2022/01/20 13:59:32;;;;;;;11.93;2.20;;;7.10;99.90;;;;;;5036961;28;20406;-76
2022/01/20 14:01:58;;;;;;;10.90;2.22;;;7.00;99.90;;;;;;5038829;28;20031;-77
2022/01/20 14:04:23;;;;;;;10.55;1.83;;;7.00;99.90;;;;;;5033231;28;20025;-77
2022/01/20 14:06:49;;;;;;;8.57;2.33;;;7.10;99.90;;;;;;5038967;28;20530;-77